Custom file does not exist C:\wdisplay\webfiles\testtags.txt Borgafjälls vädersida - Nearby METAR Reports

Nearby METAR Reports

 

KSJC - San Jose, California, USA
Distance from station: NE 14km
Actualizacin: 28/09/2020 04:53
Parcialmente nuboso
Parcialmente nuboso
 Viento del SSO
Viento: SSO 7 km/h
Temperatura: 29°C
Roco: 11°C
Humedad: 33%
Barmetro: 1009.8 hPa
Clouds: Parcialmente nuboso
Visibility: 16 km
Cloud details: Few Clouds 914 m
Parcialmente nuboso 1524 m
Parcialmente nuboso 3048 m
2020/09/28 02:53 KSJC 280253Z 20004KT 10SM FEW030 SCT050 SCT100 29/11 A2982 RMK AO2 SLP096 HZ FEW030 HZ SCT050 T02940111 53005 $
KNUQ - Moffett Nas/Mtn, California, USA
Distance from station: N 14km
Actualizacin: 27/09/2020 15:55
NOT Current
Muy nuboso
Muy nuboso
 Viento del calm
Viento: Calma
Temperatura: 16°C
Roco: 13°C
Humedad: 83%
Barmetro: 1012.5 hPa
Clouds: Muy nuboso
Visibility: 16 km
Cloud details: Parcialmente nuboso 579 m
Muy nuboso 732 m
Muy nuboso 945 m
2020/09/27 13:55 KNUQ 271355Z AUTO 00000KT 10SM SCT019 BKN024 BKN031 16/13 A2990 RMK AO2
 
KPAO - Palo Alto, California, USA
Distance from station: NNO 23km
Actualizacin: 28/09/2020 00:47
NOT Current
Despejado
Despejado
 Viento del NNO
Viento: NNO 17 km/h
Temperatura: 33°C
Roco: 9°C
Humedad: 23%
Barmetro: 1009.8 hPa
Clouds: Despejado
Visibility: 16 km
2020/09/27 22:47 KPAO 272247Z 34009KT 10SM SKC 33/09 A2982
KRHV - San Jose/Reid, California, USA
Distance from station: ENE 19km
Actualizacin: 28/09/2020 04:50
Despejado
Despejado
 Viento del varies
Viento: varies 7 km/h
Temperatura: 29°C
Roco: 12°C
Humedad: 35%
Barmetro: 1010.2 hPa
Clouds: Despejado
Visibility: 16 km
2020/09/28 02:50 KRHV 280250Z VRB04KT 10SM SKC 29/12 A2983
 
KOAK - Oakland, California, USA
Distance from station: NNO 50km
Actualizacin: 28/09/2020 04:53
Parcialmente nuboso
Parcialmente nuboso
 Viento del SO
Viento: SO 11 km/h
Temperatura: 27°C
Heat Index: 27°C
Roco: 14°C
Humedad: 45%
Barmetro: 1009.8 hPa
Clouds: Parcialmente nuboso
Visibility: 16 km
Cloud details: Parcialmente nuboso 914 m
Parcialmente nuboso 7620 m
2020/09/28 02:53 KOAK 280253Z 23006KT 10SM SCT030 SCT250 27/14 A2982 RMK AO2 SLP098 FU SCT030 T02670139 55002
KSQL - San Carlos Airpo, California, USA
Distance from station: NO 34km
Actualizacin: 28/09/2020 04:51
Despejado
Despejado
 Viento del calm
Viento: Calma
Temperatura: 29°C
Roco: 9°C
Humedad: 29%
Barmetro: 1010.2 hPa
Clouds: Despejado
Visibility: 16 km
2020/09/28 02:51 KSQL 280251Z 00000KT 10SM SKC 29/09 A2983
 
KSFO - San Francisco, California, USA
Distance from station: NO 49km
Actualizacin: 28/09/2020 04:56
Despejado
Despejado
 Viento del ONO
Viento: ONO 11 km/h
Temperatura: 26°C
Roco: 7°C
Humedad: 30%
Barmetro: 1009.8 hPa
Clouds: Despejado
Visibility: 16 km
2020/09/28 02:56 KSFO 280256Z 29006KT 10SM CLR 26/07 A2982 RMK AO2 SLP097 T02560072 55000
KE16 - San Martin, California, USA
Distance from station: ESE 43km
Actualizacin: 28/09/2020 05:25
Despejado
Despejado
 Viento del calm
Viento: Calma
Temperatura: 26°C
Roco: 9°C
Humedad: 34%
Barmetro: 1011.2 hPa
Clouds: Despejado
Visibility: 16 km
2020/09/28 03:25 KE16 280325Z AUTO 00000KT 10SM CLR 26/09 A2986 RMK AO2 PWINO PNO
 
KWVI - Watsonville, California, USA
Distance from station: SSE 44km
Actualizacin: 28/09/2020 04:53
Despejado
Despejado
 Viento del SSO
Viento: SSO 6 km/h
Temperatura: 17°C
Roco: 14°C
Humedad: 83%
Barmetro: 1010.5 hPa
Clouds: Despejado
Visibility: 16 km
2020/09/28 02:53 KWVI 280253Z AUTO 21003KT 10SM CLR 17/14 A2984 RMK AO2 SLP103 T01720139 51009
KHAF - Half Moon Bay, California, USA
Distance from station: ONO 50km
Actualizacin: 28/09/2020 05:35
Few Clouds
Few Clouds
 Viento del NO
Viento: NO 15 km/h
Temperatura: 22°C
Roco: 9°C
Humedad: 44%
Barmetro: 1010.2 hPa
Clouds: Few Clouds
Visibility: 14 km
Cloud details: Few Clouds 1829 m
2020/09/28 03:35 KHAF 280335Z AUTO 32008KT 9SM FEW060 22/09 A2983 RMK AO2
 
KHWD - Hayward, California, USA
Distance from station: N 44km
Actualizacin: 28/09/2020 04:54
Despejado
Despejado
 Viento del O
Viento: O 6 km/h
Temperatura: 29°C
Roco: 11°C
Humedad: 33%
Barmetro: 1009.8 hPa
Clouds: Despejado
Visibility: 16 km
2020/09/28 02:54 KHWD 280254Z 26003KT 10SM CLR 29/11 A2982 RMK AO2 SLP105 T02890106 53001
KLVK - Livermore, California, USA
Distance from station: NNE 51km
Actualizacin: 28/09/2020 04:53
Despejado
Despejado
 Viento del NE
Viento: NE 6 km/h
Temperatura: 26°C
Roco: 8°C
Humedad: 32%
Barmetro: 1010.5 hPa
Clouds: Despejado
Visibility: 16 km
2020/09/28 02:53 KLVK 280253Z 04003KT 10SM CLR 26/08 A2984 RMK AO2 SLP101 T02560083 53000